Time;durP1;ratioP1;P1;durP2;ratioP2;P2;SDS_P1;SDS_P2;PMS_P1;PMS_P2;Temp;Humidity;BMP_temperature;BMP_pressure;BME280_temperature;BME280_humidity;BME280_pressure;Samples;Min_cycle;Max_cycle;Signal;HPM_P1;HPM_P2
2023/12/01 00:00:24;;;;;;;18.65;8.15;;;1.30;99.90;;;;;;4951065;28;22274;-79
2023/12/01 00:02:53;;;;;;;23.02;10.15;;;1.40;99.90;;;;;;4929715;29;20052;-79
2023/12/01 00:05:22;;;;;;;20.67;8.65;;;1.40;99.90;;;;;;4930802;28;20040;-79
2023/12/01 00:07:51;;;;;;;21.52;8.43;;;1.40;99.90;;;;;;4957584;28;20075;-79
2023/12/01 00:10:21;;;;;;;23.75;9.32;;;1.30;99.90;;;;;;4935933;28;20051;-79
2023/12/01 00:12:51;;;;;;;22.10;9.27;;;1.10;99.90;;;;;;4946045;28;20036;-79
2023/12/01 00:15:20;;;;;;;25.55;10.93;;;1.40;99.90;;;;;;4945964;28;20055;-80
2023/12/01 00:17:50;;;;;;;20.95;9.13;;;1.40;99.90;;;;;;4929108;28;20154;-79
2023/12/01 00:20:20;;;;;;;21.33;8.40;;;1.40;99.90;;;;;;4929804;28;20044;-79
2023/12/01 00:22:49;;;;;;;24.33;8.95;;;1.30;99.90;;;;;;4929692;29;21764;-78
2023/12/01 00:25:18;;;;;;;21.15;8.73;;;1.40;99.90;;;;;;4928434;28;20060;-78
2023/12/01 00:27:47;;;;;;;25.58;9.75;;;1.40;99.90;;;;;;4946323;28;20051;-79
2023/12/01 00:30:17;;;;;;;22.33;9.07;;;1.40;99.90;;;;;;4930393;28;20063;-79
2023/12/01 00:32:46;;;;;;;20.58;8.80;;;1.30;99.90;;;;;;4941320;28;20039;-78
2023/12/01 00:35:15;;;;;;;19.02;7.93;;;1.30;99.90;;;;;;4941705;29;20051;-79
2023/12/01 00:37:44;;;;;;;23.45;9.98;;;1.30;99.90;;;;;;4929159;29;20051;-79
2023/12/01 00:40:13;;;;;;;22.00;8.43;;;2.00;99.90;;;;;;4945458;28;20051;-78
2023/12/01 00:42:43;;;;;;;30.02;11.68;;;1.30;99.90;;;;;;4931556;29;20047;-78
2023/12/01 00:45:12;;;;;;;25.85;9.55;;;1.40;99.90;;;;;;4946871;28;20151;-80
2023/12/01 00:47:42;;;;;;;25.45;9.02;;;1.30;99.90;;;;;;4930597;29;20727;-79
2023/12/01 00:50:11;;;;;;;24.80;9.50;;;1.30;99.90;;;;;;4948304;28;20039;-78
2023/12/01 00:52:40;;;;;;;24.13;9.38;;;1.40;99.90;;;;;;4948036;28;20115;-79
2023/12/01 00:55:09;;;;;;;21.50;8.40;;;1.30;99.90;;;;;;4916049;28;20059;-78
2023/12/01 00:57:37;;;;;;;31.08;10.77;;;1.30;99.90;;;;;;4889440;28;20063;-76
2023/12/01 01:00:07;;;;;;;24.60;9.98;;;1.30;99.90;;;;;;4889147;28;20062;-77
2023/12/01 01:02:36;;;;;;;28.80;12.00;;;1.30;99.90;;;;;;4901203;29;20544;-77
2023/12/01 01:05:08;;;;;;;26.98;10.23;;;1.30;99.90;;;;;;4879930;29;20079;-76
2023/12/01 01:07:36;;;;;;;28.17;11.03;;;1.30;99.90;;;;;;4882637;29;20044;-77
2023/12/01 01:10:05;;;;;;;23.58;10.00;;;1.30;99.90;;;;;;4883897;29;20055;-75
2023/12/01 01:12:34;;;;;;;23.95;9.50;;;1.30;99.90;;;;;;4882652;28;20059;-75
2023/12/01 01:15:03;;;;;;;23.15;9.00;;;1.30;99.90;;;;;;4897231;28;20138;-75
2023/12/01 01:17:32;;;;;;;26.35;10.07;;;1.30;99.90;;;;;;4882400;29;20102;-76
2023/12/01 01:20:02;;;;;;;27.25;11.10;;;1.30;99.90;;;;;;4880840;29;20051;-76
2023/12/01 01:22:32;;;;;;;23.25;8.85;;;1.30;99.90;;;;;;4883744;29;20060;-75
2023/12/01 01:25:00;;;;;;;23.33;10.52;;;1.30;99.90;;;;;;4897493;28;20851;-76
2023/12/01 01:27:29;;;;;;;26.77;10.25;;;1.30;99.90;;;;;;4882122;29;20047;-76
2023/12/01 01:29:58;;;;;;;24.27;9.30;;;1.30;99.90;;;;;;4898775;28;20062;-75
2023/12/01 01:32:26;;;;;;;21.52;8.25;;;1.30;99.90;;;;;;4883863;29;22620;-76
2023/12/01 01:34:54;;;;;;;20.27;8.43;;;1.30;99.90;;;;;;4883304;28;20424;-75
2023/12/01 01:37:23;;;;;;;27.50;9.77;;;1.40;99.90;;;;;;4882971;29;20126;-76
2023/12/01 01:39:53;;;;;;;30.25;12.00;;;1.30;99.90;;;;;;4881970;29;20051;-75
2023/12/01 01:42:21;;;;;;;27.48;10.05;;;1.30;99.90;;;;;;4907998;29;20055;-75
2023/12/01 01:44:50;;;;;;;29.88;10.82;;;1.30;99.90;;;;;;4926265;28;20963;-74
2023/12/01 01:47:19;;;;;;;29.73;10.20;;;1.30;99.90;;;;;;4924960;28;20094;-76
2023/12/01 01:49:47;;;;;;;24.48;8.68;;;1.30;99.90;;;;;;4900021;28;20521;-75
2023/12/01 01:52:17;;;;;;;23.20;10.23;;;1.30;99.90;;;;;;4902685;29;20138;-75
2023/12/01 01:54:46;;;;;;;27.15;10.95;;;1.30;99.90;;;;;;4902137;29;20051;-75
2023/12/01 01:57:16;;;;;;;31.15;12.13;;;1.30;99.90;;;;;;4903143;29;20211;-75
2023/12/01 01:59:44;;;;;;;29.00;10.05;;;1.30;99.90;;;;;;4917513;28;20538;-75
2023/12/01 02:02:13;;;;;;;25.23;9.63;;;1.40;99.90;;;;;;4901746;29;22610;-76
2023/12/01 02:04:42;;;;;;;25.98;9.40;;;1.40;99.90;;;;;;4899927;29;20414;-78
2023/12/01 02:07:26;;;;;;;29.30;10.68;;;1.30;99.90;;;;;;4912887;29;20119;-78
2023/12/01 02:09:55;;;;;;;25.08;10.70;;;1.30;99.90;;;;;;4914039;29;20115;-79
2023/12/01 02:12:25;;;;;;;27.17;11.10;;;1.30;99.90;;;;;;4915398;29;20066;-78
2023/12/01 02:14:53;;;;;;;30.30;11.77;;;1.30;99.90;;;;;;4941739;28;20058;-78
2023/12/01 02:17:22;;;;;;;27.85;10.43;;;1.40;99.90;;;;;;4928945;28;20050;-79
2023/12/01 02:19:51;;;;;;;33.20;11.60;;;1.40;99.90;;;;;;4930440;28;20059;-78
2023/12/01 02:22:21;;;;;;;25.58;10.30;;;1.40;99.90;;;;;;4920536;29;20059;-78
2023/12/01 02:24:50;;;;;;;25.20;9.85;;;1.40;99.90;;;;;;4941085;28;20063;-78
2023/12/01 02:27:18;;;;;;;26.48;8.70;;;1.30;99.90;;;;;;4911174;29;21976;-78
2023/12/01 02:29:47;;;;;;;26.00;9.90;;;1.40;99.90;;;;;;4917709;29;20158;-78
2023/12/01 02:32:15;;;;;;;22.95;9.02;;;1.40;99.90;;;;;;4915644;29;20122;-78
2023/12/01 02:34:45;;;;;;;29.90;11.05;;;1.40;99.90;;;;;;4914526;29;20044;-79
2023/12/01 02:37:14;;;;;;;26.67;11.30;;;1.40;99.90;;;;;;4920979;29;20043;-79
2023/12/01 02:39:44;;;;;;;27.33;10.77;;;1.50;99.90;;;;;;4918583;29;20058;-78
2023/12/01 02:42:12;;;;;;;29.13;10.35;;;1.60;99.90;;;;;;4925832;29;20115;-78
2023/12/01 02:44:41;;;;;;;31.90;11.40;;;1.40;99.90;;;;;;4934054;28;20063;-78
2023/12/01 02:47:09;;;;;;;26.67;9.77;;;1.40;99.90;;;;;;4921112;29;22911;-78
2023/12/01 02:49:38;;;;;;;28.67;9.90;;;2.00;99.90;;;;;;4933437;29;20800;-78
2023/12/01 02:52:06;;;;;;;30.70;10.98;;;2.30;99.90;;;;;;4922003;29;20059;-78
2023/12/01 02:54:35;;;;;;;26.65;9.80;;;1.80;99.90;;;;;;4929543;29;20059;-79
2023/12/01 02:57:05;;;;;;;28.13;10.32;;;1.50;99.90;;;;;;4921763;29;20099;-78
2023/12/01 02:59:34;;;;;;;26.67;10.27;;;1.40;99.90;;;;;;4937568;28;20048;-78
2023/12/01 03:02:04;;;;;;;26.70;10.50;;;1.50;99.90;;;;;;4937414;28;20066;-78
2023/12/01 03:04:32;;;;;;;29.98;10.27;;;1.40;99.90;;;;;;4959011;29;20067;-79
2023/12/01 03:07:04;;;;;;;27.67;11.55;;;2.60;99.90;;;;;;4939280;29;20067;-78
2023/12/01 03:09:33;;;;;;;28.27;10.85;;;1.40;99.90;;;;;;4933927;29;20055;-78
2023/12/01 03:12:02;;;;;;;30.13;9.65;;;1.90;99.90;;;;;;4937082;29;22329;-78
2023/12/01 03:14:32;;;;;;;28.33;10.95;;;1.50;99.90;;;;;;4921540;29;20047;-79
2023/12/01 03:17:00;;;;;;;28.30;11.13;;;1.40;99.90;;;;;;4938560;28;20031;-78
2023/12/01 03:19:29;;;;;;;29.83;10.23;;;1.30;99.90;;;;;;4934155;29;20044;-78
2023/12/01 03:21:58;;;;;;;30.67;10.65;;;1.40;99.90;;;;;;4928474;28;20040;-79
2023/12/01 03:24:27;;;;;;;36.35;11.52;;;1.80;99.90;;;;;;4925911;28;20044;-78
2023/12/01 03:26:56;;;;;;;26.58;10.32;;;2.70;99.90;;;;;;4936142;28;20036;-78
2023/12/01 03:29:25;;;;;;;32.28;12.45;;;2.40;99.90;;;;;;4927200;28;20043;-78
2023/12/01 03:31:55;;;;;;;33.08;9.75;;;2.80;99.90;;;;;;4928496;28;20054;-78
2023/12/01 03:34:24;;;;;;;28.02;10.73;;;1.40;99.90;;;;;;4936891;28;20079;-78
2023/12/01 03:36:52;;;;;;;29.48;10.32;;;1.40;99.90;;;;;;4940558;28;20028;-79
2023/12/01 03:39:21;;;;;;;30.67;11.27;;;1.60;99.90;;;;;;4951803;28;20063;-78
2023/12/01 03:41:50;;;;;;;31.30;10.77;;;1.40;99.90;;;;;;4939175;28;20028;-80
2023/12/01 03:44:20;;;;;;;31.98;10.68;;;2.00;99.90;;;;;;4928651;28;21939;-78
2023/12/01 03:46:49;;;;;;;27.88;9.95;;;1.50;99.90;;;;;;4944992;28;20067;-78
2023/12/01 03:49:19;;;;;;;31.83;11.13;;;0.40;99.90;;;;;;4929877;29;20059;-78
2023/12/01 03:51:49;;;;;;;28.80;10.80;;;1.40;99.90;;;;;;4943966;28;20055;-78
2023/12/01 03:54:20;;;;;;;31.47;11.47;;;1.30;99.90;;;;;;4927766;28;20082;-78
2023/12/01 03:56:49;;;;;;;27.38;9.95;;;0.20;99.90;;;;;;4927427;28;20381;-78
2023/12/01 03:59:19;;;;;;;29.02;10.90;;;1.50;99.90;;;;;;4928462;28;20038;-78
2023/12/01 04:01:48;;;;;;;30.17;10.88;;;2.70;99.90;;;;;;4931275;28;20063;-78
2023/12/01 04:04:17;;;;;;;30.92;10.40;;;2.10;99.90;;;;;;4928494;28;20074;-78
2023/12/01 04:06:47;;;;;;;26.77;10.50;;;1.40;99.90;;;;;;4930795;28;20031;-78
2023/12/01 04:09:17;;;;;;;31.98;12.05;;;1.10;99.90;;;;;;4950428;28;20091;-78
2023/12/01 04:11:46;;;;;;;29.20;11.45;;;1.90;99.90;;;;;;4929384;28;20072;-78
2023/12/01 04:14:15;;;;;;;32.35;11.80;;;3.10;99.90;;;;;;4930049;28;20031;-79
2023/12/01 04:16:46;;;;;;;27.27;10.32;;;1.50;99.90;;;;;;4929551;28;20037;-78
2023/12/01 04:19:14;;;;;;;30.27;11.30;;;3.50;99.90;;;;;;4944002;28;20081;-78
2023/12/01 04:21:43;;;;;;;24.75;10.13;;;1.50;99.90;;;;;;4929122;29;20103;-78
2023/12/01 04:24:14;;;;;;;30.38;11.95;;;1.50;99.90;;;;;;4929110;28;20116;-78
2023/12/01 04:26:42;;;;;;;38.03;13.02;;;1.60;99.90;;;;;;4902411;29;20688;-77
2023/12/01 04:29:10;;;;;;;37.83;12.80;;;2.20;99.90;;;;;;4885759;28;20550;-76
2023/12/01 04:31:39;;;;;;;37.90;13.90;;;1.40;99.90;;;;;;4885956;29;20131;-76
2023/12/01 04:34:11;;;;;;;36.83;13.80;;;1.50;99.90;;;;;;4900222;28;20207;-76
2023/12/01 04:36:39;;;;;;;34.95;12.20;;;1.50;99.90;;;;;;4884993;29;20504;-76
2023/12/01 04:39:14;;;;;;;33.20;12.52;;;1.50;99.90;;;;;;4883596;29;20079;-76
2023/12/01 04:41:43;;;;;;;33.03;11.40;;;1.50;99.90;;;;;;4886702;29;20056;-77
2023/12/01 04:44:12;;;;;;;36.97;13.25;;;1.50;99.90;;;;;;4885428;29;20522;-78
2023/12/01 04:46:40;;;;;;;39.03;13.65;;;1.50;99.90;;;;;;4886242;29;20173;-76
2023/12/01 04:49:09;;;;;;;31.55;11.40;;;1.50;99.90;;;;;;4912064;29;20408;-75
2023/12/01 04:51:38;;;;;;;32.65;13.07;;;1.50;99.90;;;;;;4888525;29;20110;-76
2023/12/01 04:54:06;;;;;;;34.88;12.93;;;1.50;99.90;;;;;;4889059;29;20184;-77
2023/12/01 04:56:35;;;;;;;39.28;13.23;;;1.50;99.90;;;;;;4898122;29;20063;-75
2023/12/01 04:59:05;;;;;;;33.03;12.35;;;1.50;99.90;;;;;;4886290;29;20562;-76
2023/12/01 05:01:35;;;;;;;37.65;12.88;;;1.50;99.90;;;;;;4884300;29;20063;-77
2023/12/01 05:04:03;;;;;;;37.00;13.10;;;1.50;99.90;;;;;;4899908;29;20054;-77
2023/12/01 05:06:32;;;;;;;36.40;12.00;;;1.50;99.90;;;;;;4885846;29;21206;-76
2023/12/01 05:09:00;;;;;;;32.15;13.93;;;1.50;99.90;;;;;;4898376;29;20455;-76
2023/12/01 05:11:29;;;;;;;39.10;15.02;;;1.50;99.90;;;;;;4882867;29;20055;-77
2023/12/01 05:13:57;;;;;;;33.28;13.93;;;1.60;99.90;;;;;;4883101;29;22225;-76
2023/12/01 05:16:27;;;;;;;30.20;11.43;;;1.60;99.90;;;;;;4883601;29;22200;-76
2023/12/01 05:18:55;;;;;;;34.28;11.55;;;1.60;99.90;;;;;;4881905;29;20724;-76
2023/12/01 05:21:24;;;;;;;33.45;11.20;;;1.60;99.90;;;;;;4909828;28;20519;-76
2023/12/01 05:23:52;;;;;;;35.10;13.10;;;1.60;99.90;;;;;;4897282;28;20087;-76
2023/12/01 05:26:20;;;;;;;35.58;15.68;;;1.60;99.90;;;;;;4883687;29;20523;-77
2023/12/01 05:28:49;;;;;;;38.08;14.07;;;1.60;99.90;;;;;;4884446;29;22561;-76
2023/12/01 05:31:17;;;;;;;35.03;13.00;;;1.60;99.90;;;;;;4881372;29;20056;-76
2023/12/01 05:33:47;;;;;;;35.42;13.02;;;1.60;99.90;;;;;;4899238;29;20531;-77
2023/12/01 05:36:28;;;;;;;31.05;12.38;;;1.60;99.90;;;;;;4904902;29;20055;-76
2023/12/01 05:38:57;;;;;;;34.92;14.10;;;1.60;99.90;;;;;;4883885;29;20043;-77
2023/12/01 05:41:25;;;;;;;32.47;12.43;;;1.60;99.90;;;;;;4899169;28;20063;-77
2023/12/01 05:43:54;;;;;;;39.55;14.82;;;1.60;99.90;;;;;;4897904;29;20129;-77
2023/12/01 05:46:24;;;;;;;36.75;14.02;;;1.60;99.90;;;;;;4897404;29;23290;-75
2023/12/01 05:48:54;;;;;;;38.17;15.05;;;1.60;99.90;;;;;;4912945;29;20048;-76
2023/12/01 05:51:22;;;;;;;40.72;15.60;;;1.60;99.90;;;;;;4915388;29;20063;-76
2023/12/01 05:53:51;;;;;;;33.55;13.35;;;1.60;99.90;;;;;;4908037;29;21303;-76
2023/12/01 05:56:21;;;;;;;33.55;12.43;;;1.60;99.90;;;;;;4919456;29;20063;-76
2023/12/01 05:58:50;;;;;;;32.75;12.20;;;1.60;99.90;;;;;;4918843;29;20052;-76
2023/12/01 06:01:19;;;;;;;39.03;13.82;;;1.60;99.90;;;;;;4902831;29;20078;-76
2023/12/01 06:03:47;;;;;;;37.00;13.07;;;1.70;99.90;;;;;;4905218;29;20210;-77
2023/12/01 06:06:17;;;;;;;41.63;16.48;;;1.60;99.90;;;;;;4921320;29;20603;-76
2023/12/01 06:08:45;;;;;;;39.65;17.10;;;1.70;99.90;;;;;;4906322;29;20054;-76
2023/12/01 06:11:14;;;;;;;40.45;17.08;;;1.60;99.90;;;;;;4902416;29;20056;-76
2023/12/01 06:13:42;;;;;;;38.58;15.02;;;1.70;99.90;;;;;;4905623;29;20055;-78
2023/12/01 06:16:11;;;;;;;38.30;15.20;;;1.70;99.90;;;;;;4937161;28;20090;-77
2023/12/01 06:18:39;;;;;;;38.80;16.55;;;1.70;99.90;;;;;;4907780;29;20059;-77
2023/12/01 06:21:09;;;;;;;42.25;14.85;;;1.70;99.90;;;;;;4918429;29;21381;-77
2023/12/01 06:23:39;;;;;;;40.08;14.75;;;1.70;99.90;;;;;;4930643;28;20067;-77
2023/12/01 06:26:07;;;;;;;38.88;15.57;;;1.70;99.90;;;;;;4905036;29;20056;-77
2023/12/01 06:28:36;;;;;;;34.60;13.68;;;1.70;99.90;;;;;;4911566;29;20051;-77
2023/12/01 06:31:05;;;;;;;37.40;15.88;;;1.70;99.90;;;;;;4905792;29;20047;-77
2023/12/01 06:33:36;;;;;;;43.33;16.25;;;1.70;99.90;;;;;;4901756;28;20067;-77
2023/12/01 06:36:05;;;;;;;35.78;15.15;;;1.70;99.90;;;;;;4900012;29;20071;-78
2023/12/01 06:38:33;;;;;;;40.45;15.82;;;1.70;99.90;;;;;;4920623;29;20062;-77
2023/12/01 06:41:03;;;;;;;44.85;17.13;;;1.70;99.90;;;;;;4911491;29;20052;-76
2023/12/01 06:43:31;;;;;;;50.75;17.85;;;1.70;99.90;;;;;;4905896;29;20126;-78
2023/12/01 06:46:00;;;;;;;43.85;15.85;;;1.90;99.90;;;;;;4932133;29;20083;-80
2023/12/01 06:48:29;;;;;;;44.63;15.90;;;1.80;99.90;;;;;;4924643;28;21879;-80
2023/12/01 06:50:57;;;;;;;41.70;16.55;;;1.70;99.90;;;;;;4942350;28;21954;-79
2023/12/01 06:53:26;;;;;;;44.65;16.77;;;0.40;99.90;;;;;;4931113;28;20044;-81
2023/12/01 06:55:55;;;;;;;47.78;17.17;;;1.90;99.90;;;;;;4944302;28;20063;-80
2023/12/01 06:58:24;;;;;;;42.15;16.75;;;2.30;99.90;;;;;;4927810;28;20107;-80
2023/12/01 07:00:56;;;;;;;41.25;15.20;;;2.10;99.90;;;;;;4932697;28;20047;-81
2023/12/01 07:03:25;;;;;;;47.92;16.15;;;1.80;99.90;;;;;;4926224;28;20123;-81
2023/12/01 07:05:54;;;;;;;41.80;15.23;;;2.20;99.90;;;;;;4923839;28;20054;-80
2023/12/01 07:08:23;;;;;;;41.70;15.55;;;3.70;99.90;;;;;;4940537;28;20056;-80
2023/12/01 07:10:51;;;;;;;41.38;15.48;;;1.90;99.90;;;;;;4924817;29;20055;-79
2023/12/01 07:13:20;;;;;;;43.10;17.00;;;1.90;99.90;;;;;;4923072;28;20137;-79
2023/12/01 07:15:50;;;;;;;49.63;17.63;;;2.00;99.90;;;;;;4923093;28;20130;-80
2023/12/01 07:18:19;;;;;;;47.45;18.70;;;1.80;99.90;;;;;;4929874;29;20079;-80
2023/12/01 07:20:48;;;;;;;45.25;19.25;;;1.80;99.90;;;;;;4935025;29;20065;-82
2023/12/01 07:23:20;;;;;;;42.92;17.58;;;0.50;99.90;;;;;;4939315;28;20051;-79
2023/12/01 07:25:48;;;;;;;44.85;17.25;;;2.20;99.90;;;;;;4925695;28;20044;-80
2023/12/01 07:28:17;;;;;;;46.20;16.85;;;3.40;99.90;;;;;;4935379;29;20044;-80
2023/12/01 07:30:46;;;;;;;41.05;16.05;;;1.80;99.90;;;;;;4944794;28;20175;-79
2023/12/01 07:33:16;;;;;;;46.97;17.10;;;1.90;99.90;;;;;;4929392;28;20123;-79
2023/12/01 07:35:45;;;;;;;40.25;16.58;;;1.80;99.90;;;;;;4926867;28;20055;-80
2023/12/01 07:38:15;;;;;;;46.53;18.90;;;1.90;99.90;;;;;;4926270;28;20074;-80
2023/12/01 07:40:44;;;;;;;43.72;16.88;;;1.80;99.90;;;;;;4939247;28;20071;-80
2023/12/01 07:43:13;;;;;;;51.40;19.70;;;1.60;99.90;;;;;;4927980;29;20051;-80
2023/12/01 07:45:42;;;;;;;45.53;18.35;;;1.00;99.90;;;;;;4927760;29;20715;-80
2023/12/01 07:48:11;;;;;;;47.15;17.13;;;2.00;99.90;;;;;;4929678;28;20150;-80
2023/12/01 07:50:41;;;;;;;43.63;16.33;;;2.00;99.90;;;;;;4925379;28;20056;-80
2023/12/01 07:53:09;;;;;;;41.13;15.35;;;1.90;99.90;;;;;;4929713;29;20044;-80
2023/12/01 07:55:42;;;;;;;35.40;13.85;;;2.00;99.90;;;;;;4930236;29;20039;-79
2023/12/01 07:58:11;;;;;;;;;;;2.20;99.90;;;;;;4931584;28;20056;-79
2023/12/01 08:00:40;;;;;;;43.55;13.70;;;2.00;99.90;;;;;;4950137;28;19966;-79
2023/12/01 08:03:10;;;;;;;42.67;15.82;;;2.00;99.90;;;;;;4931524;28;20048;-80
2023/12/01 08:05:40;;;;;;;40.17;16.15;;;2.10;99.90;;;;;;4930068;28;20031;-80
2023/12/01 08:08:09;;;;;;;48.15;18.88;;;2.40;99.90;;;;;;4928149;28;20723;-80
2023/12/01 08:10:38;;;;;;;69.97;25.70;;;2.00;99.90;;;;;;4956057;28;20052;-80
2023/12/01 08:13:08;;;;;;;53.10;19.90;;;1.50;99.90;;;;;;4930118;29;20040;-80
2023/12/01 08:15:36;;;;;;;42.55;16.25;;;2.10;99.90;;;;;;4928122;28;20150;-80
2023/12/01 08:18:05;;;;;;;36.25;14.15;;;1.90;99.90;;;;;;4929577;29;20162;-80
2023/12/01 08:20:34;;;;;;;33.85;14.57;;;2.00;99.90;;;;;;4924610;29;20040;-80
2023/12/01 08:23:04;;;;;;;36.10;13.55;;;2.30;99.90;;;;;;4926538;28;20048;-81
2023/12/01 08:25:33;;;;;;;36.38;13.73;;;2.00;99.90;;;;;;4938740;28;20050;-80
2023/12/01 08:28:03;;;;;;;35.63;13.50;;;2.00;99.90;;;;;;4939876;28;20059;-80
2023/12/01 08:30:32;;;;;;;30.98;12.52;;;2.10;99.90;;;;;;4926722;28;20304;-80
2023/12/01 08:33:01;;;;;;;29.20;11.48;;;2.00;99.90;;;;;;4923264;29;20064;-80
2023/12/01 08:35:30;;;;;;;36.10;15.02;;;2.10;99.90;;;;;;4923254;29;20072;-80
2023/12/01 08:37:59;;;;;;;29.95;13.55;;;0.30;99.90;;;;;;4935023;28;20043;-80
2023/12/01 08:40:29;;;;;;;39.85;14.98;;;2.10;99.90;;;;;;4924885;28;20154;-80
2023/12/01 08:43:10;;;;;;;31.40;12.97;;;2.20;99.90;;;;;;4926186;29;20071;-80
2023/12/01 08:45:39;;;;;;;34.00;12.82;;;2.00;99.90;;;;;;4927643;28;20063;-81
2023/12/01 08:48:08;;;;;;;39.72;15.68;;;2.60;99.90;;;;;;4929237;28;20075;-80
2023/12/01 08:50:36;;;;;;;37.45;14.60;;;2.60;99.90;;;;;;4927413;29;20056;-80
2023/12/01 08:53:07;;;;;;;33.92;13.40;;;2.50;99.90;;;;;;4952564;28;20050;-80
2023/12/01 08:55:38;;;;;;;32.90;13.32;;;2.20;99.90;;;;;;4927416;29;20052;-80
2023/12/01 08:58:06;;;;;;;27.92;11.73;;;2.30;99.90;;;;;;4925982;28;20070;-80
2023/12/01 09:00:35;;;;;;;30.35;12.15;;;2.70;99.90;;;;;;4939943;29;20056;-80
2023/12/01 09:03:05;;;;;;;27.02;11.75;;;2.20;99.90;;;;;;4939744;28;20055;-79
2023/12/01 09:05:34;;;;;;;28.42;11.60;;;2.60;99.90;;;;;;4938980;29;20059;-80
2023/12/01 09:08:05;;;;;;;20.25;9.30;;;3.30;99.90;;;;;;4924413;29;20066;-80
2023/12/01 09:10:34;;;;;;;19.13;8.43;;;2.30;99.90;;;;;;4948396;28;20055;-80
2023/12/01 09:13:05;;;;;;;16.30;7.40;;;2.30;99.90;;;;;;4922260;29;20052;-80
2023/12/01 09:15:35;;;;;;;22.50;9.00;;;2.40;99.90;;;;;;4922819;29;20063;-81
2023/12/01 09:18:04;;;;;;;22.17;9.27;;;2.30;99.90;;;;;;4937458;28;20060;-81
2023/12/01 09:20:33;;;;;;;21.20;9.38;;;2.50;99.90;;;;;;4948591;28;20035;-82
2023/12/01 09:23:01;;;;;;;20.40;8.85;;;2.20;99.90;;;;;;4941727;28;20076;-80
2023/12/01 09:25:30;;;;;;;20.63;9.25;;;2.30;99.90;;;;;;4942250;28;20051;-81
2023/12/01 09:27:59;;;;;;;19.50;9.15;;;2.30;99.90;;;;;;4949966;28;20059;-81
2023/12/01 09:30:30;;;;;;;21.40;9.25;;;2.50;99.90;;;;;;4923258;29;22395;-81
2023/12/01 09:32:59;;;;;;;18.25;8.57;;;2.30;99.90;;;;;;4938551;29;20051;-80
2023/12/01 09:35:27;;;;;;;23.77;9.73;;;2.30;99.90;;;;;;4938770;28;20071;-80
2023/12/01 09:38:16;;;;;;;23.73;9.52;;;2.30;99.90;;;;;;4921421;29;20063;-80
2023/12/01 09:40:45;;;;;;;20.98;8.32;;;2.30;99.90;;;;;;4938949;28;20047;-82
2023/12/01 09:43:18;;;;;;;19.60;8.27;;;2.40;99.90;;;;;;4928826;29;20051;-79
2023/12/01 09:45:52;;;;;;;19.52;8.60;;;2.30;99.90;;;;;;4920332;29;20088;-81
2023/12/01 09:48:21;;;;;;;17.07;7.63;;;1.90;99.90;;;;;;4921951;29;20059;-80
2023/12/01 09:50:50;;;;;;;17.63;7.57;;;2.50;99.90;;;;;;4925192;29;20397;-80
2023/12/01 09:53:19;;;;;;;19.20;7.97;;;2.80;99.90;;;;;;4923784;29;20723;-80
2023/12/01 09:55:49;;;;;;;17.63;7.78;;;2.30;99.90;;;;;;4933158;29;20081;-80
2023/12/01 09:58:19;;;;;;;15.32;7.32;;;2.30;99.90;;;;;;4920383;29;20058;-79
2023/12/01 10:00:49;;;;;;;16.40;6.85;;;2.30;99.90;;;;;;4923200;29;20047;-79
2023/12/01 10:03:18;;;;;;;11.68;5.22;;;2.40;99.90;;;;;;4923776;29;20040;-81
2023/12/01 10:05:48;;;;;;;9.18;4.45;;;2.30;99.90;;;;;;4921658;29;20055;-80
2023/12/01 10:08:17;;;;;;;8.95;4.50;;;2.80;99.90;;;;;;4919941;29;20051;-79
2023/12/01 10:10:46;;;;;;;9.57;3.97;;;2.40;99.90;;;;;;4918245;29;20170;-80
2023/12/01 10:13:14;;;;;;;8.13;3.67;;;2.20;99.90;;;;;;4933002;29;20100;-81
2023/12/01 10:15:48;;;;;;;11.93;4.55;;;2.30;99.90;;;;;;4923267;29;20127;-77
2023/12/01 10:18:20;;;;;;;19.33;6.60;;;2.40;99.90;;;;;;4923751;29;20132;-77
2023/12/01 10:21:03;;;;;;;13.25;5.55;;;2.30;99.90;;;;;;4905721;29;20055;-76
2023/12/01 10:23:36;;;;;;;13.38;5.18;;;2.20;99.90;;;;;;4930923;29;20153;-76
2023/12/01 10:26:07;;;;;;;10.33;4.77;;;2.30;99.90;;;;;;4936424;29;20046;-77
2023/12/01 10:28:40;;;;;;;10.98;4.80;;;2.30;99.90;;;;;;4932795;29;20341;-77
2023/12/01 10:31:10;;;;;;;9.70;4.38;;;2.30;99.90;;;;;;4933200;29;20588;-77
2023/12/01 10:33:40;;;;;;;8.38;4.75;;;2.30;99.90;;;;;;4931743;29;20052;-76
2023/12/01 10:36:12;;;;;;;9.88;4.22;;;2.30;99.90;;;;;;4929002;29;20052;-76
2023/12/01 10:38:40;;;;;;;8.32;3.88;;;2.30;99.90;;;;;;4938449;29;20047;-77
2023/12/01 10:41:09;;;;;;;8.77;4.25;;;2.30;99.90;;;;;;4929883;29;20043;-76
2023/12/01 10:43:42;;;;;;;9.15;4.13;;;2.30;99.90;;;;;;4933389;29;20048;-77
2023/12/01 10:46:13;;;;;;;6.87;3.00;;;2.30;99.90;;;;;;4930299;29;20051;-76
2023/12/01 10:48:44;;;;;;;7.40;3.42;;;2.30;99.90;;;;;;4933091;29;20139;-76
2023/12/01 10:51:14;;;;;;;11.75;4.75;;;2.30;99.90;;;;;;4950624;28;20047;-76
2023/12/01 10:53:44;;;;;;;9.20;3.83;;;2.30;99.90;;;;;;4950866;29;20062;-77
2023/12/01 10:56:17;;;;;;;9.90;4.00;;;2.30;99.90;;;;;;4929686;29;20556;-76
2023/12/01 10:58:52;;;;;;;11.10;4.38;;;2.30;99.90;;;;;;4931874;29;20062;-77
2023/12/01 11:01:24;;;;;;;10.63;4.22;;;2.80;99.90;;;;;;4935100;29;20139;-77
2023/12/01 11:03:59;;;;;;;10.00;4.28;;;2.30;99.90;;;;;;4934129;29;20115;-77
2023/12/01 11:06:40;;;;;;;12.93;6.03;;;2.30;99.90;;;;;;4938321;29;20503;-77
2023/12/01 11:09:24;;;;;;;14.30;6.05;;;2.30;99.90;;;;;;4938664;29;20075;-76
2023/12/01 11:11:59;;;;;;;20.50;7.45;;;2.30;99.90;;;;;;4937371;29;20052;-76
2023/12/01 11:14:29;;;;;;;25.85;8.13;;;2.30;99.90;;;;;;4929575;29;20051;-77
2023/12/01 11:16:57;;;;;;;15.57;6.50;;;2.30;99.90;;;;;;4938554;29;20044;-77
2023/12/01 11:19:35;;;;;;;13.35;6.03;;;2.30;99.90;;;;;;4935714;29;20056;-76
2023/12/01 11:22:23;;;;;;;13.38;5.43;;;2.30;99.90;;;;;;4934938;29;20047;-77
2023/12/01 11:24:52;;;;;;;15.50;6.68;;;2.30;99.90;;;;;;4936433;29;20106;-76
2023/12/01 11:27:21;;;;;;;12.35;5.75;;;2.80;99.90;;;;;;4929034;29;20054;-79
2023/12/01 11:30:07;;;;;;;9.80;4.57;;;2.20;99.90;;;;;;4927468;29;20046;-81
2023/12/01 11:32:41;;;;;;;7.43;4.38;;;2.30;99.90;;;;;;4943505;28;20043;-80
2023/12/01 11:35:13;;;;;;;11.50;6.00;;;2.30;99.90;;;;;;4932326;29;21819;-80
2023/12/01 11:38:03;;;;;;;11.35;5.85;;;2.30;99.90;;;;;;4931980;29;20055;-80
2023/12/01 11:40:41;;;;;;;12.68;5.63;;;3.00;99.90;;;;;;4961659;29;20040;-85
2023/12/01 11:43:11;;;;;;;12.18;4.93;;;2.30;99.90;;;;;;4931064;29;20093;-80
2023/12/01 11:45:50;;;;;;;13.40;5.63;;;2.30;99.90;;;;;;4923799;29;20142;-80
2023/12/01 11:48:18;;;;;;;12.32;5.80;;;3.30;99.90;;;;;;4946679;28;20054;-80
2023/12/01 11:50:50;;;;;;;12.70;5.90;;;2.40;99.90;;;;;;4931357;29;20075;-79
2023/12/01 11:53:19;;;;;;;7.80;3.65;;;3.60;99.90;;;;;;4926123;29;21964;-79
2023/12/01 11:55:50;;;;;;;14.35;5.20;;;2.30;99.90;;;;;;4925471;29;20062;-81
2023/12/01 11:58:19;;;;;;;8.80;5.00;;;3.60;99.90;;;;;;4921756;29;20055;-80
2023/12/01 12:00:48;;;;;;;14.02;8.00;;;2.40;99.90;;;;;;4923865;29;20051;-80
2023/12/01 12:03:20;;;;;;;13.10;5.78;;;2.40;99.90;;;;;;4946468;28;20066;-83
2023/12/01 12:05:53;;;;;;;9.82;5.38;;;2.40;99.90;;;;;;4939357;28;20066;-80
2023/12/01 12:08:23;;;;;;;15.38;6.95;;;2.50;99.90;;;;;;4925913;29;20040;-80
2023/12/01 12:10:53;;;;;;;11.98;6.53;;;2.40;99.90;;;;;;4923428;28;20041;-79
2023/12/01 12:13:23;;;;;;;12.57;5.30;;;2.60;99.90;;;;;;4926257;29;20036;-84
2023/12/01 12:15:52;;;;;;;25.67;9.85;;;3.90;99.90;;;;;;4923131;29;20051;-81
2023/12/01 12:18:27;;;;;;;17.60;7.95;;;3.00;99.90;;;;;;4934790;29;20080;-80
2023/12/01 12:21:01;;;;;;;14.68;6.93;;;2.40;99.90;;;;;;4936062;28;20052;-82
2023/12/01 12:23:31;;;;;;;12.57;6.50;;;2.40;99.90;;;;;;4920742;29;20124;-81
2023/12/01 12:26:18;;;;;;;11.15;6.95;;;3.90;99.90;;;;;;4938843;29;20054;-83
2023/12/01 12:28:50;;;;;;;9.40;5.60;;;2.40;99.90;;;;;;4921285;29;20074;-81
2023/12/01 12:31:25;;;;;;;8.73;5.28;;;2.50;99.90;;;;;;4935899;29;20079;-81
2023/12/01 12:33:56;;;;;;;11.38;5.30;;;2.40;99.90;;;;;;4922536;29;20119;-82
2023/12/01 12:36:31;;;;;;;12.38;5.90;;;2.50;99.90;;;;;;4950180;28;20059;-77
2023/12/01 12:39:01;;;;;;;11.95;6.15;;;2.50;99.90;;;;;;4919963;29;20060;-77
2023/12/01 12:41:31;;;;;;;12.38;5.22;;;2.40;99.90;;;;;;4931457;29;20059;-77
2023/12/01 12:44:01;;;;;;;10.02;5.25;;;2.50;99.90;;;;;;4938858;29;20067;-77
2023/12/01 12:46:31;;;;;;;21.33;7.85;;;2.40;99.90;;;;;;4938704;29;20052;-77
2023/12/01 12:49:04;;;;;;;24.52;10.18;;;2.40;99.90;;;;;;4939848;29;20126;-77
2023/12/01 12:51:34;;;;;;;19.40;8.20;;;2.40;99.90;;;;;;4953773;29;20146;-77
2023/12/01 12:54:06;;;;;;;18.80;8.48;;;2.30;99.90;;;;;;4938456;29;20043;-77
2023/12/01 12:56:36;;;;;;;13.05;6.63;;;2.40;99.90;;;;;;4940805;29;20055;-77